createdAt,value
2023-05-20T00:01:27.146Z,15.08
2023-05-20T00:03:55.649Z,15.13
2023-05-20T00:06:24.185Z,14.71
2023-05-20T00:08:53.834Z,14.87
2023-05-20T00:11:22.181Z,14.99
2023-05-20T00:13:50.704Z,15.02
2023-05-20T00:16:19.138Z,15.12
2023-05-20T00:18:47.500Z,15.04
2023-05-20T00:21:15.804Z,14.74
2023-05-20T00:23:44.209Z,14.28
2023-05-20T00:26:13.928Z,14.35
2023-05-20T00:28:42.414Z,14.46
2023-05-20T00:31:10.888Z,14.78
2023-05-20T00:33:39.261Z,14.59
2023-05-20T00:36:08.026Z,14.31
2023-05-20T00:38:36.427Z,14.39
2023-05-20T00:41:04.876Z,14.24
2023-05-20T00:43:34.574Z,13.87
2023-05-20T00:46:03.527Z,14.03
2023-05-20T00:48:38.964Z,14.01
2023-05-20T00:51:07.896Z,14.07
2023-05-20T00:53:37.528Z,14.11
2023-05-20T00:56:06.850Z,14.09
2023-05-20T00:58:38.185Z,13.97
2023-05-20T01:01:07.333Z,13.81
2023-05-20T01:03:36.104Z,13.57
2023-05-20T01:06:04.581Z,13.45
2023-05-20T01:08:34.392Z,13.53
2023-05-20T01:11:07.917Z,13.74
2023-05-20T01:13:44.535Z,13.74
2023-05-20T01:16:16.519Z,13.62
2023-05-20T01:18:45.884Z,13.40
2023-05-20T01:21:16.767Z,13.19
2023-05-20T01:23:46.550Z,13.16
2023-05-20T01:26:15.028Z,13.31
2023-05-20T01:28:44.847Z,13.10
2023-05-20T01:31:20.281Z,13.01
2023-05-20T01:33:53.155Z,13.10
2023-05-20T01:36:22.779Z,12.92
2023-05-20T01:38:52.973Z,13.13
2023-05-20T01:41:22.484Z,13.10
2023-05-20T01:43:51.281Z,13.34
2023-05-20T01:46:19.639Z,13.50
2023-05-20T01:48:47.990Z,13.40
2023-05-20T01:51:16.946Z,13.69
2023-05-20T01:53:45.248Z,13.91
2023-05-20T01:56:14.959Z,13.95
2023-05-20T01:58:43.214Z,13.76
2023-05-20T02:01:11.560Z,13.68
2023-05-20T02:03:40.017Z,14.06
2023-05-20T02:06:08.402Z,13.73
2023-05-20T02:08:36.804Z,13.61
2023-05-20T02:11:05.255Z,13.86
2023-05-20T02:13:35.093Z,13.80
2023-05-20T02:16:03.484Z,13.84
2023-05-20T02:18:32.883Z,13.61
2023-05-20T02:21:04.108Z,13.55
2023-05-20T02:23:32.916Z,13.53
2023-05-20T02:26:01.859Z,12.96
2023-05-20T02:28:30.150Z,12.84
2023-05-20T02:30:59.780Z,12.66
2023-05-20T02:33:29.318Z,12.84
2023-05-20T02:35:57.931Z,13.06
2023-05-20T02:38:26.745Z,13.32
2023-05-20T02:40:55.141Z,13.50
2023-05-20T02:43:23.471Z,13.50
2023-05-20T02:45:51.801Z,13.31
2023-05-20T02:48:21.524Z,13.48
2023-05-20T02:50:49.886Z,13.00
2023-05-20T02:53:18.274Z,13.22
2023-05-20T02:55:49.104Z,12.92
2023-05-20T02:58:17.710Z,13.43
2023-05-20T03:00:46.137Z,13.47
2023-05-20T03:03:15.213Z,13.27
2023-05-20T03:05:46.194Z,13.08
2023-05-20T03:08:15.282Z,12.98
2023-05-20T03:10:43.601Z,12.75
2023-05-20T03:13:12.095Z,12.62
2023-05-20T03:15:40.760Z,12.39
2023-05-20T03:18:09.930Z,12.28
2023-05-20T03:20:38.515Z,11.82
2023-05-20T03:23:08.688Z,12.27
2023-05-20T03:25:37.747Z,12.43
2023-05-20T03:28:07.112Z,12.19
2023-05-20T03:30:35.471Z,12.67
2023-05-20T03:33:06.120Z,12.60
2023-05-20T03:35:34.764Z,12.79
2023-05-20T03:38:03.137Z,13.05
2023-05-20T03:40:32.916Z,13.23
2023-05-20T03:43:01.330Z,13.34
2023-05-20T03:45:29.617Z,13.39
2023-05-20T03:47:58.027Z,13.09
2023-05-20T03:50:26.315Z,13.54
2023-05-20T03:52:54.597Z,13.61
2023-05-20T03:55:22.947Z,13.42
2023-05-20T03:57:52.756Z,13.71
2023-05-20T04:00:21.107Z,13.45
2023-05-20T04:02:49.501Z,12.91
2023-05-20T04:05:17.925Z,13.21
2023-05-20T04:07:46.509Z,13.52
2023-05-20T04:10:14.957Z,13.84
2023-05-20T04:12:43.760Z,14.02
2023-05-20T04:15:15.182Z,14.13
2023-05-20T04:17:43.871Z,14.17
2023-05-20T04:20:13.191Z,14.23
2023-05-20T04:22:41.623Z,14.18
2023-05-20T04:25:10.416Z,14.35
2023-05-20T04:27:39.869Z,14.30
2023-05-20T04:30:10.016Z,14.35
2023-05-20T04:32:39.859Z,14.23
2023-05-20T04:35:12.122Z,14.27
2023-05-20T04:37:42.483Z,14.28
2023-05-20T04:40:12.729Z,14.11
2023-05-20T04:42:41.034Z,14.36
2023-05-20T04:45:10.078Z,14.25
2023-05-20T04:47:40.139Z,14.23
2023-05-20T04:50:10.925Z,14.04
2023-05-20T04:52:39.875Z,13.95
2023-05-20T04:55:09.945Z,13.80
2023-05-20T04:57:39.768Z,13.88
2023-05-20T05:00:09.808Z,14.29
2023-05-20T05:02:40.054Z,13.89
2023-05-20T05:05:09.304Z,14.07
2023-05-20T05:07:37.683Z,14.19
2023-05-20T05:10:06.791Z,13.47
2023-05-20T05:12:35.066Z,13.02
2023-05-20T05:15:03.475Z,12.86
2023-05-20T05:17:31.850Z,12.90
2023-05-20T05:20:01.532Z,13.53
2023-05-20T05:22:29.896Z,13.65
2023-05-20T05:24:59.090Z,13.42
2023-05-20T05:27:27.414Z,14.00
2023-05-20T05:29:55.959Z,13.82
2023-05-20T05:32:24.311Z,14.68
2023-05-20T05:34:52.657Z,14.69
2023-05-20T05:37:22.506Z,14.42
2023-05-20T05:39:50.858Z,14.04
2023-05-20T05:42:19.103Z,14.72
2023-05-20T05:44:47.740Z,15.28
2023-05-20T05:47:16.139Z,15.42
2023-05-20T05:49:44.463Z,15.80
2023-05-20T05:52:12.802Z,16.37
2023-05-20T05:54:42.599Z,16.55
2023-05-20T05:57:12.222Z,16.69
2023-05-20T05:59:40.697Z,16.81
2023-05-20T06:02:10.471Z,16.45
2023-05-20T06:04:38.869Z,16.09
2023-05-20T06:07:07.125Z,15.57
2023-05-20T06:09:35.650Z,16.26
2023-05-20T06:12:06.093Z,16.36
2023-05-20T06:14:34.553Z,16.58
2023-05-20T06:17:03.121Z,16.74
2023-05-20T06:19:31.575Z,17.53
2023-05-20T06:22:00.054Z,17.14
2023-05-20T06:24:28.302Z,18.00
2023-05-20T06:26:56.572Z,18.49
2023-05-20T06:29:26.542Z,17.91
2023-05-20T06:31:54.802Z,18.55
2023-05-20T06:34:23.090Z,18.84
2023-05-20T06:36:51.359Z,19.66
2023-05-20T06:39:19.653Z,19.67
2023-05-20T06:41:48.023Z,19.73
2023-05-20T06:44:16.293Z,20.03
2023-05-20T06:46:46.267Z,19.74
2023-05-20T06:49:14.868Z,20.55
2023-05-20T06:51:44.340Z,20.65
2023-05-20T06:54:12.638Z,21.09
2023-05-20T06:56:40.990Z,21.60
2023-05-20T06:59:09.354Z,21.76
2023-05-20T07:01:37.771Z,21.62
2023-05-20T07:04:07.762Z,21.63
2023-05-20T07:06:36.367Z,22.13
2023-05-20T07:09:05.625Z,22.28
2023-05-20T07:11:33.931Z,22.35
2023-05-20T07:14:02.187Z,22.31
2023-05-20T07:16:32.616Z,22.90
2023-05-20T07:19:00.860Z,22.56
2023-05-20T07:21:30.508Z,21.51
2023-05-20T07:23:58.967Z,21.60
2023-05-20T07:26:27.251Z,21.26
2023-05-20T07:28:55.561Z,21.47
2023-05-20T07:31:24.441Z,21.78
2023-05-20T07:33:52.701Z,22.16
2023-05-20T07:36:21.096Z,21.78
2023-05-20T07:39:01.910Z,22.59
2023-05-20T07:41:32.616Z,22.46
2023-05-20T07:44:01.063Z,22.07
2023-05-20T07:46:29.453Z,23.08
2023-05-20T07:48:57.903Z,23.49
2023-05-20T07:51:26.334Z,23.60
2023-05-20T07:53:56.292Z,23.82
2023-05-20T07:56:24.655Z,24.34
2023-05-20T07:58:58.445Z,24.46
2023-05-20T08:01:27.355Z,24.21
2023-05-20T08:03:55.941Z,24.49
2023-05-20T08:06:27.952Z,24.99
2023-05-20T08:08:59.286Z,24.22
2023-05-20T08:11:27.656Z,24.75
2023-05-20T08:13:58.570Z,24.57
2023-05-20T08:16:26.951Z,23.94
2023-05-20T08:18:55.423Z,23.37
2023-05-20T08:21:23.807Z,22.95
2023-05-20T08:23:52.174Z,23.88
2023-05-20T08:26:22.164Z,23.73
2023-05-20T08:28:50.673Z,23.50
2023-05-20T08:31:19.213Z,23.30
2023-05-20T08:33:47.674Z,23.92
2023-05-20T08:36:16.231Z,23.51
2023-05-20T08:38:44.636Z,24.90
2023-05-20T08:41:12.970Z,26.07
2023-05-20T08:43:43.275Z,25.88
2023-05-20T08:46:11.922Z,25.79
2023-05-20T08:48:41.274Z,26.09
2023-05-20T08:51:11.555Z,26.45
2023-05-20T08:53:39.868Z,26.98
2023-05-20T08:56:09.614Z,26.69
2023-05-20T08:58:38.060Z,26.41
2023-05-20T09:01:08.513Z,25.89
2023-05-20T09:03:36.814Z,24.60
2023-05-20T09:06:06.696Z,24.28
2023-05-20T09:08:35.526Z,25.05
2023-05-20T09:11:04.090Z,25.56
2023-05-20T09:13:34.247Z,26.33
2023-05-20T09:16:03.009Z,24.59
2023-05-20T09:18:33.148Z,24.87
2023-05-20T09:21:07.146Z,25.23
2023-05-20T09:23:38.433Z,25.12
2023-05-20T09:26:07.010Z,24.28
2023-05-20T09:28:38.481Z,24.47
2023-05-20T09:31:07.314Z,24.42
2023-05-20T09:33:38.658Z,24.01
2023-05-20T09:36:09.851Z,23.77
2023-05-20T09:38:39.954Z,23.56
2023-05-20T09:41:09.629Z,23.50
2023-05-20T09:43:38.225Z,23.52
2023-05-20T09:46:06.904Z,24.15
2023-05-20T09:48:37.682Z,24.81
2023-05-20T09:51:07.393Z,24.82
2023-05-20T09:53:36.028Z,24.82
2023-05-20T09:56:04.932Z,24.55
2023-05-20T09:58:35.355Z,24.40
2023-05-20T10:01:03.835Z,24.57
2023-05-20T10:03:33.605Z,24.90
2023-05-20T10:06:41.864Z,25.67
2023-05-20T10:09:26.198Z,25.52
2023-05-20T10:12:04.124Z,25.68
2023-05-20T10:14:45.294Z,25.16
2023-05-20T10:17:22.920Z,25.67
2023-05-20T10:19:51.863Z,26.52
2023-05-20T10:22:30.226Z,25.79
2023-05-20T10:25:02.620Z,25.07
2023-05-20T10:27:31.075Z,25.30
2023-05-20T10:29:59.511Z,25.18
2023-05-20T10:32:29.261Z,24.79
2023-05-20T10:35:02.180Z,24.54
2023-05-20T10:37:34.095Z,25.50
2023-05-20T10:40:08.769Z,25.57
2023-05-20T10:42:37.224Z,25.16
2023-05-20T10:45:06.628Z,25.65
2023-05-20T10:47:35.337Z,25.17
2023-05-20T10:50:05.080Z,25.61
2023-05-20T10:52:38.364Z,25.17
2023-05-20T10:55:07.726Z,24.90
2023-05-20T10:57:36.580Z,24.64
2023-05-20T11:00:06.883Z,24.87
2023-05-20T11:02:36.014Z,24.79
2023-05-20T11:05:06.700Z,24.62
2023-05-20T11:07:36.470Z,25.46
2023-05-20T11:10:10.139Z,26.96
2023-05-20T11:12:38.679Z,28.49
2023-05-20T11:15:08.285Z,29.78
2023-05-20T11:17:36.745Z,29.97
2023-05-20T11:20:05.687Z,30.46
2023-05-20T11:22:35.434Z,31.41
2023-05-20T11:25:07.488Z,30.91
2023-05-20T11:27:35.922Z,30.77
2023-05-20T11:30:06.024Z,31.07
2023-05-20T11:32:34.339Z,30.33
2023-05-20T11:35:02.722Z,28.17
2023-05-20T11:37:31.390Z,27.58
2023-05-20T11:40:09.726Z,27.12
2023-05-20T11:42:39.042Z,28.70
2023-05-20T11:45:08.429Z,27.06
2023-05-20T11:47:36.811Z,26.64
2023-05-20T11:50:05.342Z,27.82
2023-05-20T11:52:35.230Z,27.52
2023-05-20T11:55:03.716Z,27.44
2023-05-20T11:57:33.944Z,26.93
2023-05-20T12:00:02.410Z,25.94
2023-05-20T12:02:30.800Z,25.72
2023-05-20T12:04:59.550Z,25.82
2023-05-20T12:07:28.701Z,26.18
2023-05-20T12:09:57.073Z,25.72
2023-05-20T12:12:25.760Z,26.36
2023-05-20T12:14:55.815Z,27.61
2023-05-20T12:17:24.247Z,26.72
2023-05-20T12:19:52.708Z,26.81
2023-05-20T12:22:21.046Z,27.39
2023-05-20T12:24:53.640Z,27.97
2023-05-20T12:27:23.935Z,28.96
2023-05-20T12:29:52.174Z,29.16
2023-05-20T12:32:22.058Z,30.10
2023-05-20T12:34:50.474Z,28.01
2023-05-20T12:37:18.855Z,26.74
2023-05-20T12:39:47.106Z,26.87
2023-05-20T12:42:15.531Z,26.49
2023-05-20T12:44:43.879Z,26.36
2023-05-20T12:47:12.380Z,26.71
2023-05-20T12:49:42.102Z,26.20
2023-05-20T12:52:18.902Z,26.01
2023-05-20T12:54:50.597Z,26.58
2023-05-20T12:57:19.884Z,26.74
2023-05-20T12:59:48.210Z,26.37
2023-05-20T13:02:16.634Z,26.07
2023-05-20T13:04:46.395Z,25.65
2023-05-20T13:07:14.731Z,26.05
2023-05-20T13:09:43.157Z,25.89
2023-05-20T13:12:11.688Z,26.07
2023-05-20T13:14:40.059Z,25.64
2023-05-20T13:17:08.560Z,24.98
2023-05-20T13:19:38.010Z,24.76
2023-05-20T13:22:09.254Z,24.18
2023-05-20T13:24:38.351Z,23.82
2023-05-20T13:27:07.050Z,23.75
2023-05-20T13:29:35.387Z,23.86
2023-05-20T13:32:05.010Z,24.20
2023-05-20T13:34:33.335Z,24.10
2023-05-20T13:37:01.684Z,24.07
2023-05-20T13:39:31.354Z,23.68
2023-05-20T13:42:00.067Z,23.66
2023-05-20T13:44:29.063Z,23.44
2023-05-20T13:46:58.530Z,23.09
2023-05-20T13:49:26.939Z,23.25
2023-05-20T13:51:55.252Z,23.25
2023-05-20T13:54:23.589Z,23.06
2023-05-20T13:56:54.720Z,22.95
2023-05-20T13:59:23.105Z,23.18
2023-05-20T14:01:51.513Z,22.86
2023-05-20T14:04:19.804Z,22.51
2023-05-20T14:06:48.151Z,22.26
2023-05-20T14:09:16.541Z,22.77
2023-05-20T14:11:45.034Z,22.97
2023-05-20T14:14:14.815Z,23.02
2023-05-20T14:16:43.447Z,23.02
2023-05-20T14:19:11.822Z,23.09
2023-05-20T14:21:40.100Z,22.67
2023-05-20T14:24:08.529Z,22.58
2023-05-20T14:26:36.929Z,22.50
2023-05-20T14:29:05.356Z,22.59
2023-05-20T14:31:35.067Z,22.81
2023-05-20T14:34:03.372Z,22.25
2023-05-20T14:36:32.227Z,22.42
2023-05-20T14:39:00.543Z,22.48
2023-05-20T14:41:29.107Z,22.16
2023-05-20T14:43:57.462Z,22.13
2023-05-20T14:46:25.965Z,22.27
2023-05-20T14:48:55.913Z,22.40
2023-05-20T14:51:24.292Z,22.32
2023-05-20T14:53:52.672Z,22.56
2023-05-20T14:56:21.115Z,22.68
2023-05-20T14:58:49.389Z,22.47
2023-05-20T15:01:17.762Z,22.52
2023-05-20T15:03:46.210Z,22.56
2023-05-20T15:06:16.009Z,22.31
2023-05-20T15:08:44.426Z,22.37
2023-05-20T15:11:12.820Z,22.42
2023-05-20T15:13:41.108Z,22.29
2023-05-20T15:16:09.817Z,22.19
2023-05-20T15:18:38.185Z,22.48
2023-05-20T15:21:06.834Z,22.76
2023-05-20T15:23:36.516Z,22.67
2023-05-20T15:26:05.352Z,22.83
2023-05-20T15:28:33.914Z,22.54
2023-05-20T15:31:02.236Z,22.57
2023-05-20T15:33:30.707Z,22.51
2023-05-20T15:35:59.195Z,22.57
2023-05-20T15:38:27.430Z,22.72
2023-05-20T15:40:57.415Z,22.80
2023-05-20T15:43:25.972Z,22.51
2023-05-20T15:45:54.855Z,22.65
2023-05-20T15:48:23.939Z,22.65
2023-05-20T15:50:52.201Z,22.45
2023-05-20T15:53:20.635Z,22.53
2023-05-20T15:55:49.073Z,22.43
2023-05-20T15:58:18.782Z,22.33
2023-05-20T16:00:47.121Z,22.30
2023-05-20T16:03:16.626Z,22.14
2023-05-20T16:05:45.077Z,22.30
2023-05-20T16:08:13.311Z,22.27
2023-05-20T16:10:41.742Z,22.27
2023-05-20T16:13:10.138Z,22.25
2023-05-20T16:15:39.927Z,22.10
2023-05-20T16:18:08.245Z,22.07
2023-05-20T16:20:36.675Z,21.92
2023-05-20T16:23:05.400Z,21.87
2023-05-20T16:25:33.759Z,21.82
2023-05-20T16:28:02.248Z,21.83
2023-05-20T16:30:30.667Z,21.81
2023-05-20T16:33:00.481Z,21.61
2023-05-20T16:35:28.890Z,21.61
2023-05-20T16:37:57.257Z,21.64
2023-05-20T16:40:25.658Z,21.61
2023-05-20T16:42:54.183Z,21.53
2023-05-20T16:45:22.624Z,21.12
2023-05-20T16:47:51.031Z,20.51
2023-05-20T16:50:20.807Z,20.70
2023-05-20T16:52:49.149Z,20.72
2023-05-20T16:55:17.699Z,20.57
2023-05-20T16:57:47.465Z,20.61
2023-05-20T17:00:16.542Z,20.64
2023-05-20T17:02:44.909Z,20.68
2023-05-20T17:05:14.643Z,20.36
2023-05-20T17:07:48.949Z,20.65
2023-05-20T17:10:17.266Z,20.55
2023-05-20T17:12:45.781Z,20.61
2023-05-20T17:15:14.048Z,20.74
2023-05-20T17:17:42.329Z,20.75
2023-05-20T17:20:11.628Z,20.81
2023-05-20T17:22:39.881Z,20.86
2023-05-20T17:25:10.696Z,20.88
2023-05-20T17:27:39.081Z,20.80
2023-05-20T17:30:08.730Z,20.74
2023-05-20T17:32:38.679Z,20.69
2023-05-20T17:35:08.005Z,20.62
2023-05-20T17:37:36.977Z,20.33
2023-05-20T17:40:07.014Z,20.22
2023-05-20T17:42:36.841Z,20.10
2023-05-20T17:45:05.853Z,20.06
2023-05-20T17:47:34.253Z,19.90
2023-05-20T17:50:02.883Z,19.71
2023-05-20T17:52:31.217Z,19.78
2023-05-20T17:54:59.440Z,19.94
2023-05-20T17:57:28.348Z,20.09
2023-05-20T17:59:58.049Z,19.91
2023-05-20T18:02:26.568Z,19.75
2023-05-20T18:04:54.972Z,19.58
2023-05-20T18:07:23.464Z,19.63
2023-05-20T18:09:51.786Z,19.75
2023-05-20T18:12:20.148Z,19.95
2023-05-20T18:14:48.541Z,19.86
2023-05-20T18:17:18.282Z,19.72
2023-05-20T18:19:46.708Z,19.66
2023-05-20T18:22:15.081Z,19.65
2023-05-20T18:24:43.482Z,19.33
2023-05-20T18:27:11.876Z,19.13
2023-05-20T18:29:40.182Z,19.49
2023-05-20T18:32:09.614Z,19.31
2023-05-20T18:34:39.470Z,18.98
2023-05-20T18:37:07.738Z,18.68
2023-05-20T18:39:36.130Z,18.59
2023-05-20T18:42:04.378Z,18.54
2023-05-20T18:44:32.642Z,18.64
2023-05-20T18:47:01.188Z,18.90
2023-05-20T18:49:29.537Z,18.78
2023-05-20T18:51:59.259Z,18.97
2023-05-20T18:54:27.675Z,19.07
2023-05-20T18:56:56.270Z,18.77
2023-05-20T18:59:25.270Z,18.69
2023-05-20T19:01:53.766Z,18.54
2023-05-20T19:04:22.082Z,18.55
2023-05-20T19:06:50.562Z,18.61
2023-05-20T19:09:20.296Z,18.75
2023-05-20T19:11:48.663Z,18.97
2023-05-20T19:14:16.951Z,19.17
2023-05-20T19:16:45.484Z,19.18
2023-05-20T19:19:14.786Z,19.10
2023-05-20T19:21:44.342Z,18.75
2023-05-20T19:24:17.935Z,18.46
2023-05-20T19:26:47.638Z,18.81
2023-05-20T19:29:16.146Z,18.69
2023-05-20T19:31:44.915Z,18.71
2023-05-20T19:34:13.251Z,18.15
2023-05-20T19:36:43.038Z,18.23
2023-05-20T19:39:11.626Z,18.31
2023-05-20T19:41:40.267Z,18.44
2023-05-20T19:44:10.658Z,18.45
2023-05-20T19:46:39.148Z,18.28
2023-05-20T19:49:07.549Z,18.41
2023-05-20T19:51:36.039Z,18.47
2023-05-20T19:54:04.399Z,18.44
2023-05-20T19:56:32.761Z,18.41
2023-05-20T19:59:01.950Z,18.36
2023-05-20T20:01:32.228Z,18.45
2023-05-20T20:04:00.725Z,18.32
2023-05-20T20:06:28.948Z,18.53
2023-05-20T20:08:57.279Z,18.75
2023-05-20T20:11:26.897Z,18.74
2023-05-20T20:13:55.194Z,18.66
2023-05-20T20:16:23.595Z,18.54
2023-05-20T20:18:53.408Z,18.24
2023-05-20T20:21:22.058Z,18.03
2023-05-20T20:23:50.426Z,18.00
2023-05-20T20:26:18.742Z,18.11
2023-05-20T20:28:47.151Z,18.24
2023-05-20T20:31:15.449Z,17.93
2023-05-20T20:33:43.827Z,18.05
2023-05-20T20:36:13.591Z,18.05
2023-05-20T20:38:47.255Z,18.11
2023-05-20T20:41:16.957Z,17.86
2023-05-20T20:43:46.146Z,18.01
2023-05-20T20:46:15.608Z,17.91
2023-05-20T20:48:46.016Z,17.80
2023-05-20T20:51:16.639Z,17.86
2023-05-20T20:53:46.532Z,17.93
2023-05-20T20:56:14.888Z,17.92
2023-05-20T20:58:45.175Z,17.84
2023-05-20T21:01:17.409Z,17.83
2023-05-20T21:03:46.007Z,17.95
2023-05-20T21:06:18.899Z,18.09
2023-05-20T21:08:48.106Z,18.02
2023-05-20T21:11:17.941Z,17.89
2023-05-20T21:13:46.304Z,17.87
2023-05-20T21:16:14.716Z,17.96
2023-05-20T21:18:43.064Z,17.72
2023-05-20T21:21:14.076Z,17.95
2023-05-20T21:23:43.842Z,17.49
2023-05-20T21:26:12.135Z,17.74
2023-05-20T21:28:40.518Z,17.71
2023-05-20T21:31:08.838Z,17.62
2023-05-20T21:33:37.215Z,17.71
2023-05-20T21:36:06.254Z,17.50
2023-05-20T21:38:34.547Z,17.41
2023-05-20T21:41:04.314Z,17.39
2023-05-20T21:43:32.745Z,17.30
2023-05-20T21:46:01.068Z,17.20
2023-05-20T21:48:29.536Z,17.26
2023-05-20T21:50:57.896Z,17.23
2023-05-20T21:53:26.145Z,17.37
2023-05-20T21:55:54.467Z,17.62
2023-05-20T21:58:24.172Z,17.69
2023-05-20T22:00:52.412Z,17.57
2023-05-20T22:03:22.107Z,17.56
2023-05-20T22:05:50.591Z,17.57
2023-05-20T22:08:19.112Z,17.73
2023-05-20T22:10:48.464Z,17.67
2023-05-20T22:13:17.378Z,17.59
2023-05-20T22:15:47.113Z,17.49
2023-05-20T22:18:15.749Z,17.59
2023-05-20T22:20:44.083Z,17.49
2023-05-20T22:23:12.399Z,17.43
2023-05-20T22:25:40.981Z,17.43
2023-05-20T22:28:09.616Z,17.40
2023-05-20T22:30:38.463Z,17.47
2023-05-20T22:33:08.204Z,17.37
2023-05-20T22:35:36.767Z,17.01
2023-05-20T22:38:05.223Z,17.53
2023-05-20T22:40:33.704Z,17.72
2023-05-20T22:43:01.929Z,17.32
2023-05-20T22:45:30.241Z,17.40
2023-05-20T22:47:58.570Z,17.24
2023-05-20T22:50:28.296Z,17.41
2023-05-20T22:52:56.609Z,17.65
2023-05-20T22:55:25.209Z,17.45
2023-05-20T22:57:54.293Z,17.50
2023-05-20T23:00:23.486Z,17.56
2023-05-20T23:02:52.596Z,17.75
2023-05-20T23:05:21.207Z,17.32
2023-05-20T23:07:53.296Z,17.41
2023-05-20T23:10:22.027Z,17.49
2023-05-20T23:12:50.318Z,17.73
2023-05-20T23:15:19.391Z,17.64
2023-05-20T23:17:49.424Z,17.48
2023-05-20T23:20:19.313Z,17.68
2023-05-20T23:22:48.226Z,17.46
2023-05-20T23:25:17.996Z,17.20
2023-05-20T23:27:46.332Z,17.57
2023-05-20T23:30:14.771Z,17.37
2023-05-20T23:32:43.691Z,17.45
2023-05-20T23:35:13.444Z,17.55
2023-05-20T23:37:43.011Z,17.42
2023-05-20T23:40:11.836Z,17.27
2023-05-20T23:42:41.691Z,17.21
2023-05-20T23:45:11.405Z,17.06
2023-05-20T23:47:39.868Z,17.07
2023-05-20T23:50:08.999Z,17.04
2023-05-20T23:52:37.486Z,17.06
2023-05-20T23:55:06.470Z,17.18
2023-05-20T23:57:34.738Z,17.10
